Time;durP1;ratioP1;P1;durP2;ratioP2;P2;SDS_P1;SDS_P2;PMS_P1;PMS_P2;Temp;Humidity;BMP_temperature;BMP_pressure;BME280_temperature;BME280_humidity;BME280_pressure;Samples;Min_cycle;Max_cycle;Signal;HPM_P1;HPM_P2
2023/05/25 00:00:56;;;;;;;43.20;32.50;;;;;;;12.96;79.55;97611.97;108906;1250;96406;-73
2023/05/25 00:03:34;;;;;;;45.70;33.00;;;;;;;12.94;79.51;97615.23;108809;1250;103588;-76
2023/05/25 00:06:02;;;;;;;44.70;32.90;;;;;;;12.94;79.50;97617.23;108762;1251;101562;-73
2023/05/25 00:08:31;;;;;;;44.30;31.70;;;;;;;12.95;79.63;97619.69;108863;1250;99923;-75
2023/05/25 00:10:59;;;;;;;47.10;34.10;;;;;;;12.97;79.58;97620.27;108901;1250;95616;-73
2023/05/25 00:13:27;;;;;;;42.20;32.10;;;;;;;12.98;79.59;97620.13;108934;1250;96026;-73
2023/05/25 00:15:55;;;;;;;44.10;33.00;;;;;;;12.97;79.51;97617.42;108805;1251;102672;-75
2023/05/25 00:18:25;;;;;;;50.40;33.70;;;;;;;12.94;79.61;97616.48;108651;1250;201414;-74
2023/05/25 00:20:54;;;;;;;50.30;31.10;;;;;;;12.93;79.60;97618.77;108941;1250;99797;-73
2023/05/25 00:23:22;;;;;;;46.50;30.80;;;;;;;12.92;79.61;97619.29;108897;1250;95553;-75
2023/05/25 00:25:50;;;;;;;44.40;31.50;;;;;;;12.91;79.65;97622.02;108918;1250;96050;-73
2023/05/25 00:28:18;;;;;;;44.70;33.20;;;;;;;12.90;79.51;97621.13;108924;1250;103745;-75
2023/05/25 00:30:46;;;;;;;45.20;32.40;;;;;;;12.87;79.65;97624.10;108929;1250;101184;-73
2023/05/25 00:33:15;;;;;;;42.60;33.30;;;;;;;12.84;79.73;97625.28;108788;1250;100062;-74
2023/05/25 00:35:43;;;;;;;48.30;33.10;;;;;;;12.82;79.78;97627.34;108806;1250;95604;-74
2023/05/25 00:38:18;;;;;;;48.50;32.20;;;;;;;12.82;79.88;97629.45;108682;1251;97049;-76
2023/05/25 00:40:46;;;;;;;47.50;32.10;;;;;;;12.85;79.89;97626.07;108954;1250;103491;-72
2023/05/25 00:43:14;;;;;;;47.20;32.70;;;;;;;12.86;79.86;97620.98;108943;1250;101721;-73
2023/05/25 00:45:42;;;;;;;44.00;31.90;;;;;;;12.87;79.86;97621.68;108817;1250;100097;-75
2023/05/25 00:48:11;;;;;;;45.10;31.50;;;;;;;12.88;79.83;97626.09;108941;1250;95975;-73
2023/05/25 00:50:41;;;;;;;46.40;32.50;;;;;;;12.88;79.73;97623.89;108949;1250;96049;-73
2023/05/25 00:53:11;;;;;;;44.70;31.40;;;;;;;12.89;79.78;97624.09;108930;1250;103607;-76
2023/05/25 00:56:19;;;;;;;42.40;31.30;;;;;;;12.89;79.79;97625.21;108924;1250;101036;-73
2023/05/25 00:58:51;;;;;;;44.10;32.10;;;;;;;12.88;79.89;97619.47;108289;1258;100012;-74
2023/05/25 01:01:22;;;;;;;39.20;31.80;;;;;;;12.86;79.96;97621.23;108263;1259;95988;-74
2023/05/25 01:03:52;;;;;;;43.50;31.10;;;;;;;12.86;79.86;97616.64;108105;1260;96157;-73
2023/05/25 01:06:22;;;;;;;43.80;32.90;;;;;;;12.87;79.88;97617.02;108297;1259;103593;-74
2023/05/25 01:08:55;;;;;;;39.40;30.40;;;;;;;12.86;79.84;97614.64;108277;1260;101167;-73
2023/05/25 01:11:28;;;;;;;45.30;33.00;;;;;;;12.85;79.92;97612.48;108211;1260;100220;-73
2023/05/25 01:13:58;;;;;;;45.60;32.30;;;;;;;12.85;79.96;97615.32;108198;1258;95934;-73
2023/05/25 01:16:26;;;;;;;50.60;33.50;;;;;;;12.86;79.77;97621.52;108242;1260;96876;-73
2023/05/25 01:18:54;;;;;;;42.60;32.40;;;;;;;12.86;79.84;97627.44;108268;1259;103831;-72
2023/05/25 01:21:36;;;;;;;47.10;32.10;;;;;;;12.85;79.83;97628.70;108245;1259;101372;-75
2023/05/25 01:24:31;;;;;;;45.30;32.60;;;;;;;12.85;79.92;97627.33;108253;1260;99912;-73
2023/05/25 01:27:05;;;;;;;44.70;31.60;;;;;;;12.84;79.84;97631.95;108261;1258;95677;-73
2023/05/25 01:29:35;;;;;;;43.20;31.30;;;;;;;12.82;79.91;97628.92;108134;1260;96721;-75
2023/05/25 01:32:04;;;;;;;43.30;33.70;;;;;;;12.81;79.96;97628.88;108276;1258;103667;-73
2023/05/25 01:34:32;;;;;;;45.90;33.20;;;;;;;12.81;79.77;97629.84;108111;1259;102960;-73
2023/05/25 01:37:00;;;;;;;45.10;33.40;;;;;;;12.81;79.84;97631.96;108914;1251;100120;-73
2023/05/25 01:39:28;;;;;;;45.40;33.00;;;;;;;12.82;79.89;97631.50;108916;1251;95871;-74
2023/05/25 01:41:56;;;;;;;44.00;31.80;;;;;;;12.81;80.01;97629.59;108998;1250;95766;-73
2023/05/25 01:44:26;;;;;;;43.00;32.20;;;;;;;12.82;80.03;97631.17;109015;1251;103977;-73
2023/05/25 01:47:18;;;;;;;47.80;33.70;;;;;;;12.80;80.06;97628.70;108982;1251;101484;-73
2023/05/25 01:50:06;;;;;;;44.20;31.90;;;;;;;12.77;79.93;97628.55;108296;1257;100084;-73
2023/05/25 01:52:45;;;;;;;44.70;32.00;;;;;;;12.75;80.15;97625.31;108303;1256;95679;-73
2023/05/25 01:55:15;;;;;;;41.50;32.20;;;;;;;12.75;80.25;97627.16;108304;1257;97039;-73
2023/05/25 01:57:46;;;;;;;48.90;32.20;;;;;;;12.73;80.21;97627.24;108212;1257;103711;-73
2023/05/25 02:00:16;;;;;;;44.10;33.00;;;;;;;12.70;80.18;97626.44;108381;1257;101477;-73
2023/05/25 02:02:47;;;;;;;48.40;33.40;;;;;;;12.66;80.34;97619.02;108291;1256;99415;-76
2023/05/25 02:05:15;;;;;;;48.70;31.90;;;;;;;12.64;80.41;97616.45;108306;1256;96176;-73
2023/05/25 02:07:43;;;;;;;47.00;33.70;;;;;;;12.60;80.51;97619.20;108316;1257;96171;-73
2023/05/25 02:10:11;;;;;;;43.80;31.70;;;;;;;12.60;80.43;97619.29;108330;1257;103525;-73
2023/05/25 02:12:39;;;;;;;46.50;32.10;;;;;;;12.61;80.56;97619.50;108321;1257;101247;-73
2023/05/25 02:15:08;;;;;;;45.50;32.60;;;;;;;12.62;80.47;97615.86;108297;1256;100162;-73
2023/05/25 02:17:37;;;;;;;45.40;31.70;;;;;;;12.64;80.53;97617.32;108245;1257;95709;-73
2023/05/25 02:20:06;;;;;;;45.10;32.60;;;;;;;12.63;80.43;97617.57;108365;1256;96091;-73
2023/05/25 02:22:36;;;;;;;40.50;30.70;;;;;;;12.62;80.53;97618.02;108200;1257;102710;-72
2023/05/25 02:25:04;;;;;;;54.30;32.30;;;;;;;12.64;80.72;97614.73;108279;1257;101383;-73
2023/05/25 02:27:33;;;;;;;50.40;33.00;;;;;;;12.67;80.61;97616.55;108254;1251;99253;-76
2023/05/25 02:30:01;;;;;;;48.30;33.00;;;;;;;12.70;80.50;97615.27;108939;1251;95619;-76
2023/05/25 02:32:30;;;;;;;41.20;30.70;;;;;;;12.71;80.56;97618.55;108997;1251;96012;-73
2023/05/25 02:34:58;;;;;;;49.50;33.40;;;;;;;12.71;80.58;97618.88;108961;1251;103538;-73
2023/05/25 02:37:26;;;;;;;44.10;31.80;;;;;;;12.72;80.53;97622.38;108982;1250;101346;-73
2023/05/25 02:39:54;;;;;;;44.60;31.20;;;;;;;12.72;80.58;97621.38;108914;1251;99810;-73
2023/05/25 02:42:22;;;;;;;43.80;32.20;;;;;;;12.73;80.44;97618.73;108833;1250;95614;-74
2023/05/25 02:44:50;;;;;;;47.80;31.90;;;;;;;12.73;80.37;97623.83;109006;1250;95595;-73
2023/05/25 02:47:18;;;;;;;41.70;31.00;;;;;;;12.72;80.37;97624.25;108955;1253;103487;-74
2023/05/25 02:49:47;;;;;;;49.10;30.60;;;;;;;12.71;80.53;97621.34;108959;1251;101945;-73
2023/05/25 02:52:15;;;;;;;50.50;32.20;;;;;;;12.72;80.38;97621.08;108917;1251;100128;-73
2023/05/25 02:54:43;;;;;;;49.60;31.40;;;;;;;12.71;80.41;97613.00;108742;1251;95623;-76
2023/05/25 02:57:11;;;;;;;49.50;32.90;;;;;;;12.70;80.30;97611.38;108979;1249;96077;-75
2023/05/25 02:59:39;;;;;;;47.50;32.10;;;;;;;12.69;80.35;97609.38;109001;1251;102229;-73
2023/05/25 03:02:08;;;;;;;43.60;32.50;;;;;;;12.67;80.32;97604.75;108861;1251;100356;-73
2023/05/25 03:04:37;;;;;;;44.10;31.40;;;;;;;12.63;80.36;97603.48;108921;1251;100117;-72
2023/05/25 03:07:05;;;;;;;48.00;33.00;;;;;;;12.62;80.49;97604.53;108899;1251;95840;-72
2023/05/25 03:09:33;;;;;;;46.80;33.40;;;;;;;12.62;80.32;97602.79;108935;1251;96429;-73
2023/05/25 03:12:01;;;;;;;44.70;32.60;;;;;;;12.61;80.29;97603.37;108765;1251;103552;-75
2023/05/25 03:14:30;;;;;;;44.80;33.50;;;;;;;12.62;80.25;97600.41;108921;1250;101221;-73
2023/05/25 03:16:58;;;;;;;53.70;33.40;;;;;;;12.60;80.25;97595.38;108614;1250;99153;-76
2023/05/25 03:19:26;;;;;;;50.30;33.40;;;;;;;12.58;80.23;97600.89;108920;1250;95586;-75
2023/05/25 03:21:54;;;;;;;49.20;33.10;;;;;;;12.57;80.40;97601.10;108692;1251;96216;-76
2023/05/25 03:24:22;;;;;;;50.40;34.30;;;;;;;12.58;80.43;97599.55;108867;1251;103458;-73
2023/05/25 03:26:50;;;;;;;51.40;33.00;;;;;;;12.59;80.33;97601.67;108949;1250;101259;-73
2023/05/25 03:29:18;;;;;;;48.00;32.30;;;;;;;12.60;80.36;97600.33;108883;1251;99823;-73
2023/05/25 03:31:46;;;;;;;48.00;32.40;;;;;;;12.60;80.44;97598.38;108591;1251;95916;-71
2023/05/25 03:34:14;;;;;;;47.80;31.90;;;;;;;12.59;80.30;97603.13;108877;1250;96020;-74
2023/05/25 03:36:44;;;;;;;49.50;32.00;;;;;;;12.60;80.21;97606.05;108894;1251;103150;-74
2023/05/25 03:39:13;;;;;;;58.00;33.20;;;;;;;12.62;80.34;97607.50;108902;1250;101040;-73
2023/05/25 03:41:41;;;;;;;46.70;32.50;;;;;;;12.61;80.39;97608.24;108864;1250;99957;-75
2023/05/25 03:44:10;;;;;;;46.60;33.30;;;;;;;12.61;80.29;97608.02;108919;1250;95783;-73
2023/05/25 03:46:38;;;;;;;45.90;32.50;;;;;;;12.61;80.24;97609.00;108899;1251;96064;-74
2023/05/25 03:49:06;;;;;;;45.30;31.70;;;;;;;12.62;80.13;97613.78;108687;1251;102593;-73
2023/05/25 03:51:35;;;;;;;48.70;32.70;;;;;;;12.63;80.24;97620.45;108767;1250;101542;-73
2023/05/25 03:54:03;;;;;;;55.00;33.80;;;;;;;12.65;80.31;97623.56;108880;1251;99874;-75
2023/05/25 03:56:31;;;;;;;43.80;31.30;;;;;;;12.67;80.11;97627.98;108896;1250;95590;-72
2023/05/25 03:59:00;;;;;;;46.60;33.20;;;;;;;12.67;80.05;97630.55;108902;1253;96045;-73
2023/05/25 04:01:28;;;;;;;52.20;32.40;;;;;;;12.68;80.02;97629.73;108832;1251;104284;-75
2023/05/25 04:03:57;;;;;;;46.40;31.20;;;;;;;12.68;80.00;97632.08;108899;1250;101392;-73
2023/05/25 04:06:25;;;;;;;44.10;31.10;;;;;;;12.67;79.73;97635.35;108882;1251;99860;-73
2023/05/25 04:08:54;;;;;;;41.00;30.50;;;;;;;12.65;79.90;97641.18;108829;1251;95635;-72
2023/05/25 04:11:23;;;;;;;47.40;31.20;;;;;;;12.63;79.92;97641.27;108895;1251;96149;-73
2023/05/25 04:13:51;;;;;;;45.30;30.20;;;;;;;12.56;80.00;97643.27;108884;1251;113193;-73
2023/05/25 04:16:20;;;;;;;48.40;31.00;;;;;;;12.53;80.15;97641.60;108928;1251;100997;-76
2023/05/25 04:18:48;;;;;;;46.40;31.90;;;;;;;12.54;80.40;97641.34;108883;1251;99894;-73
2023/05/25 04:21:16;;;;;;;44.90;30.10;;;;;;;12.55;80.26;97639.23;108901;1250;95536;-74
2023/05/25 04:23:44;;;;;;;44.50;32.00;;;;;;;12.58;80.31;97643.13;108884;1251;96029;-73
2023/05/25 04:26:14;;;;;;;48.70;31.60;;;;;;;12.61;80.35;97642.79;108867;1251;103469;-76
2023/05/25 04:28:42;;;;;;;47.60;31.10;;;;;;;12.61;80.17;97639.37;108903;1251;101299;-75
2023/05/25 04:31:12;;;;;;;44.60;30.90;;;;;;;12.62;80.19;97642.02;108676;1251;100131;-73
2023/05/25 04:33:40;;;;;;;46.80;30.30;;;;;;;12.64;80.17;97645.81;108701;1251;95660;-74
2023/05/25 04:36:09;;;;;;;46.90;32.20;;;;;;;12.65;80.20;97646.64;108866;1250;96027;-73
2023/05/25 04:38:37;;;;;;;42.40;30.40;;;;;;;12.66;80.11;97650.60;108881;1251;111877;-73
2023/05/25 04:41:06;;;;;;;46.50;31.90;;;;;;;12.69;80.17;97656.73;108932;1251;109968;-72
2023/05/25 04:43:34;;;;;;;44.30;31.00;;;;;;;12.71;80.13;97658.59;108866;1250;100235;-73
2023/05/25 04:46:03;;;;;;;46.90;31.40;;;;;;;12.72;80.03;97657.16;108902;1251;95551;-75
2023/05/25 04:48:33;;;;;;;45.10;30.90;;;;;;;12.74;80.03;97658.70;108872;1251;96053;-75
2023/05/25 04:51:03;;;;;;;48.00;29.80;;;;;;;12.76;79.93;97660.56;108921;1250;103573;-76
2023/05/25 04:53:31;;;;;;;45.30;31.50;;;;;;;12.77;80.02;97661.48;108861;1250;101231;-74
2023/05/25 04:55:59;;;;;;;44.90;30.70;;;;;;;12.78;80.08;97664.10;108909;1251;99897;-73
2023/05/25 04:58:28;;;;;;;47.80;29.90;;;;;;;12.78;80.01;97665.64;108852;1250;95559;-74
2023/05/25 05:00:56;;;;;;;42.00;30.90;;;;;;;12.74;80.11;97668.41;108787;1251;95999;-73
2023/05/25 05:03:25;;;;;;;50.70;32.80;;;;;;;12.70;80.05;97666.09;108890;1250;103567;-76
2023/05/25 05:05:53;;;;;;;47.50;31.30;;;;;;;12.69;80.20;97670.89;108906;1250;101801;-73
2023/05/25 05:08:21;;;;;;;46.30;31.60;;;;;;;12.70;80.18;97676.01;108847;1251;99706;-72
2023/05/25 05:10:50;;;;;;;43.30;29.50;;;;;;;12.68;80.20;97678.99;108819;1251;95760;-73
2023/05/25 05:13:18;;;;;;;40.70;29.00;;;;;;;12.68;80.24;97679.63;108831;1254;96606;-75
2023/05/25 05:15:46;;;;;;;42.50;28.80;;;;;;;12.71;80.24;97682.39;108738;1251;111581;-73
2023/05/25 05:18:14;;;;;;;45.50;30.40;;;;;;;12.74;80.14;97684.87;108923;1251;101273;-75
2023/05/25 05:20:42;;;;;;;43.20;29.80;;;;;;;12.76;80.01;97686.23;108819;1251;98943;-73
2023/05/25 05:23:10;;;;;;;46.00;30.60;;;;;;;12.77;80.12;97687.70;108902;1251;96008;-73
2023/05/25 05:25:39;;;;;;;43.50;30.30;;;;;;;12.78;79.99;97686.86;108858;1254;96608;-73
2023/05/25 05:28:07;;;;;;;41.40;28.40;;;;;;;12.77;80.16;97692.58;108793;1250;104685;-72
2023/05/25 05:30:35;;;;;;;42.70;29.60;;;;;;;12.73;80.28;97694.88;108921;1250;101108;-73
2023/05/25 05:33:03;;;;;;;42.30;30.30;;;;;;;12.75;80.34;97694.49;108862;1251;99715;-73
2023/05/25 05:35:31;;;;;;;43.70;29.00;;;;;;;12.73;80.39;97699.74;108587;1251;95654;-73
2023/05/25 05:38:00;;;;;;;40.80;28.80;;;;;;;12.72;80.50;97698.55;108865;1251;96009;-74
2023/05/25 05:40:28;;;;;;;38.90;28.30;;;;;;;12.74;80.57;97696.63;108880;1251;103291;-75
2023/05/25 05:42:56;;;;;;;43.20;29.80;;;;;;;12.77;80.53;97697.61;108892;1250;101497;-73
2023/05/25 05:45:24;;;;;;;40.60;29.70;;;;;;;12.80;80.49;97699.17;108850;1250;100218;-73
2023/05/25 05:47:52;;;;;;;45.20;30.70;;;;;;;12.82;80.50;97697.89;108867;1250;95511;-73
2023/05/25 05:50:20;;;;;;;43.00;29.90;;;;;;;12.84;80.42;97700.01;108881;1250;95994;-73
2023/05/25 05:52:48;;;;;;;40.80;29.80;;;;;;;12.87;80.39;97705.25;108892;1251;103741;-75
2023/05/25 05:55:17;;;;;;;42.80;29.90;;;;;;;12.89;80.39;97708.20;108887;1250;100557;-74
2023/05/25 05:57:45;;;;;;;44.90;31.20;;;;;;;12.88;80.23;97711.96;108840;1250;99942;-74
2023/05/25 06:00:14;;;;;;;42.60;30.20;;;;;;;12.88;80.42;97715.00;108720;1251;95888;-73
2023/05/25 06:02:43;;;;;;;44.70;31.70;;;;;;;12.89;80.34;97716.66;108769;1251;96466;-73
2023/05/25 06:05:11;;;;;;;50.20;29.60;;;;;;;12.89;80.19;97715.33;108753;1251;104482;-73
2023/05/25 06:07:41;;;;;;;47.60;29.70;;;;;;;12.90;80.06;97715.66;108688;1250;100727;-76
2023/05/25 06:10:09;;;;;;;44.60;28.30;;;;;;;12.90;80.02;97715.08;108917;1251;107342;-74
2023/05/25 06:12:37;;;;;;;42.40;28.70;;;;;;;12.91;80.05;97714.52;108879;1250;95932;-74
2023/05/25 06:15:06;;;;;;;39.00;27.90;;;;;;;12.93;80.04;97717.67;108919;1250;96045;-73
2023/05/25 06:17:34;;;;;;;43.60;29.50;;;;;;;12.94;80.10;97720.04;108862;1250;103730;-73
2023/05/25 06:20:05;;;;;;;46.10;29.10;;;;;;;12.95;80.11;97723.27;108891;1250;101162;-76
2023/05/25 06:22:33;;;;;;;42.00;30.10;;;;;;;12.98;80.01;97725.81;108799;1250;99468;-74
2023/05/25 06:25:01;;;;;;;46.30;31.00;;;;;;;13.02;79.98;97729.80;108820;1250;96056;-73
2023/05/25 06:27:29;;;;;;;45.50;29.30;;;;;;;13.04;79.83;97727.19;108884;1250;96022;-75
2023/05/25 06:29:57;;;;;;;42.40;28.50;;;;;;;13.05;79.78;97732.36;108890;1251;102700;-75
2023/05/25 06:32:26;;;;;;;41.50;29.20;;;;;;;13.05;79.75;97733.20;108623;1251;101371;-73
2023/05/25 06:34:54;;;;;;;44.80;29.40;;;;;;;13.07;79.72;97731.41;108776;1250;98712;-75
2023/05/25 06:37:22;;;;;;;41.00;26.90;;;;;;;13.09;79.69;97732.23;108853;1251;95974;-73
2023/05/25 06:39:50;;;;;;;38.60;27.00;;;;;;;13.09;79.48;97733.56;108852;1250;96034;-73
2023/05/25 06:42:18;;;;;;;37.80;26.10;;;;;;;13.09;79.51;97737.90;108884;1250;103483;-73
2023/05/25 06:44:46;;;;;;;31.90;24.20;;;;;;;13.10;79.38;97744.45;108901;1250;101304;-73
2023/05/25 06:47:14;;;;;;;31.30;23.90;;;;;;;13.11;79.19;97749.98;108888;1250;98577;-73
2023/05/25 06:49:42;;;;;;;36.70;24.30;;;;;;;13.10;79.27;97752.08;108886;1250;95863;-73
2023/05/25 06:52:11;;;;;;;30.80;23.60;;;;;;;13.09;79.44;97748.91;108847;1250;97189;-73
2023/05/25 06:54:39;;;;;;;31.80;23.60;;;;;;;13.04;79.37;97748.36;108820;1250;103420;-73
2023/05/25 06:57:07;;;;;;;38.60;24.00;;;;;;;13.03;79.50;97751.17;108900;1250;102159;-75
2023/05/25 06:59:35;;;;;;;34.60;23.30;;;;;;;13.04;79.51;97747.52;108865;1250;100076;-73
2023/05/25 07:02:03;;;;;;;34.10;24.50;;;;;;;13.03;79.66;97750.17;108904;1250;95953;-73
2023/05/25 07:04:31;;;;;;;32.10;23.80;;;;;;;13.05;79.55;97750.60;108907;1250;95991;-73
2023/05/25 07:06:59;;;;;;;31.20;23.00;;;;;;;13.08;79.46;97752.50;108896;1250;102311;-73
2023/05/25 07:09:28;;;;;;;32.60;24.50;;;;;;;13.12;79.47;97755.90;108649;1250;101238;-75
2023/05/25 07:11:56;;;;;;;33.50;22.70;;;;;;;13.16;79.46;97761.56;108895;1250;99864;-74
2023/05/25 07:14:24;;;;;;;35.70;25.30;;;;;;;13.14;79.36;97763.99;108903;1250;95900;-73
2023/05/25 07:16:52;;;;;;;30.20;23.60;;;;;;;13.15;79.26;97761.92;108898;1250;96483;-73
2023/05/25 07:19:20;;;;;;;29.90;22.70;;;;;;;13.16;79.30;97762.77;108908;1250;103402;-74
2023/05/25 07:21:48;;;;;;;32.70;23.30;;;;;;;13.17;79.17;97765.67;108893;1250;101276;-75
2023/05/25 07:24:17;;;;;;;37.90;24.70;;;;;;;13.19;79.26;97760.88;108862;1250;99840;-73
2023/05/25 07:26:45;;;;;;;31.20;23.20;;;;;;;13.21;79.19;97761.70;108853;1251;95981;-73
2023/05/25 07:29:13;;;;;;;32.20;23.00;;;;;;;13.23;79.05;97760.73;108914;1250;96462;-75
2023/05/25 07:31:41;;;;;;;29.50;22.40;;;;;;;13.25;79.07;97760.77;108882;1250;102169;-77
2023/05/25 07:34:09;;;;;;;32.50;23.10;;;;;;;13.27;79.10;97763.97;108614;1250;100573;-74
2023/05/25 07:36:37;;;;;;;35.00;23.60;;;;;;;13.24;78.80;97762.77;108848;1250;99107;-73
2023/05/25 07:39:06;;;;;;;29.50;22.20;;;;;;;13.21;78.76;97766.54;108838;1250;95558;-74
2023/05/25 07:41:34;;;;;;;28.40;21.20;;;;;;;13.21;78.96;97768.70;108863;1250;96027;-76
2023/05/25 07:44:02;;;;;;;30.20;21.70;;;;;;;13.23;79.08;97768.83;108824;1250;104845;-73
2023/05/25 07:46:30;;;;;;;29.90;20.80;;;;;;;13.26;79.07;97769.35;108898;1250;101356;-74
2023/05/25 07:48:58;;;;;;;29.40;21.00;;;;;;;13.29;78.99;97771.45;108850;1251;99889;-74
2023/05/25 07:51:30;;;;;;;29.40;20.20;;;;;;;13.29;78.73;97769.02;108838;1250;95530;-73
2023/05/25 07:53:58;;;;;;;30.60;19.90;;;;;;;13.28;78.68;97772.02;108864;1250;96021;-75
2023/05/25 07:56:27;;;;;;;25.20;19.80;;;;;;;13.30;78.62;97772.26;108923;1250;103271;-72
2023/05/25 07:58:56;;;;;;;30.80;20.60;;;;;;;13.34;78.54;97774.13;108885;1250;101448;-76
2023/05/25 08:01:24;;;;;;;26.00;19.70;;;;;;;13.38;78.60;97775.14;108870;1250;99784;-74
2023/05/25 08:03:53;;;;;;;25.80;19.30;;;;;;;13.40;78.43;97777.58;108833;1250;95604;-76
2023/05/25 08:06:21;;;;;;;25.30;19.70;;;;;;;13.34;78.32;97776.42;108888;1251;96512;-74
2023/05/25 08:08:49;;;;;;;27.00;19.80;;;;;;;13.25;78.38;97773.94;108786;1251;103522;-74
2023/05/25 08:11:17;;;;;;;23.60;18.60;;;;;;;13.15;78.46;97772.36;108753;1250;101271;-73
2023/05/25 08:13:46;;;;;;;25.10;19.60;;;;;;;13.11;78.67;97769.46;108932;1249;99975;-75
2023/05/25 08:16:14;;;;;;;25.50;19.20;;;;;;;13.15;78.77;97768.33;108389;1251;95704;-74
2023/05/25 08:18:45;;;;;;;26.40;18.60;;;;;;;13.24;78.55;97767.65;108685;1249;96020;-74
2023/05/25 08:21:14;;;;;;;24.00;18.90;;;;;;;13.30;78.31;97768.10;108863;1250;103529;-74
2023/05/25 08:23:42;;;;;;;27.80;20.40;;;;;;;13.35;78.28;97768.36;108783;1250;101174;-75
2023/05/25 08:26:11;;;;;;;26.40;19.40;;;;;;;13.41;78.30;97769.69;108886;1250;98944;-74
2023/05/25 08:28:39;;;;;;;26.10;19.40;;;;;;;13.47;78.14;97770.90;108878;1249;95707;-74
2023/05/25 08:31:08;;;;;;;24.50;18.50;;;;;;;13.51;78.04;97770.95;108859;1250;96018;-74
2023/05/25 08:33:38;;;;;;;29.20;19.20;;;;;;;13.57;77.93;97767.73;108915;1250;103508;-73
2023/05/25 08:36:08;;;;;;;25.00;18.30;;;;;;;13.58;77.93;97774.23;108686;1251;101228;-74
2023/05/25 08:38:36;;;;;;;24.90;19.30;;;;;;;13.59;77.88;97779.06;108871;1250;99643;-74
2023/05/25 08:41:06;;;;;;;28.10;19.30;;;;;;;13.54;77.74;97778.27;108925;1250;95830;-74
2023/05/25 08:43:35;;;;;;;31.60;22.30;;;;;;;13.50;77.88;97781.61;108829;1250;96000;-76
2023/05/25 08:46:05;;;;;;;32.60;22.90;;;;;;;13.52;77.68;97775.11;108858;1250;103427;-74
2023/05/25 08:48:35;;;;;;;32.20;24.10;;;;;;;13.56;77.55;97776.58;108933;1250;101297;-77
2023/05/25 08:51:09;;;;;;;31.20;23.90;;;;;;;13.62;77.66;97778.21;108845;1251;99999;-76
2023/05/25 08:53:41;;;;;;;34.60;25.30;;;;;;;13.65;77.28;97776.08;108766;1253;95666;-73
2023/05/25 08:56:33;;;;;;;30.90;23.60;;;;;;;13.65;77.26;97779.02;108893;1250;95819;-73
2023/05/25 08:59:15;;;;;;;30.10;23.30;;;;;;;13.56;77.43;97778.86;108690;1251;102487;-74
2023/05/25 09:01:47;;;;;;;36.40;25.80;;;;;;;13.59;77.56;97779.02;108859;1250;101095;-75
2023/05/25 09:04:18;;;;;;;33.10;24.70;;;;;;;13.68;77.55;97779.15;108581;1256;99934;-74
2023/05/25 09:06:47;;;;;;;32.00;22.60;;;;;;;13.77;77.37;97780.23;108832;1251;95546;-74
2023/05/25 09:09:15;;;;;;;30.60;23.20;;;;;;;13.84;77.26;97784.44;108900;1250;96036;-76
2023/05/25 09:11:44;;;;;;;26.10;21.80;;;;;;;13.88;77.03;97779.21;108920;1250;103384;-76
2023/05/25 09:14:13;;;;;;;31.10;21.50;;;;;;;13.92;76.90;97780.02;108867;1250;101237;-76
2023/05/25 09:16:42;;;;;;;30.10;21.80;;;;;;;13.94;76.75;97784.92;108879;1250;100184;-74
2023/05/25 09:19:10;;;;;;;30.20;22.70;;;;;;;14.01;76.74;97780.26;108875;1250;95671;-74
2023/05/25 09:21:38;;;;;;;31.50;22.90;;;;;;;14.08;76.84;97780.41;108863;1250;96000;-76
2023/05/25 09:24:07;;;;;;;31.90;24.30;;;;;;;14.09;76.98;97780.77;108938;1250;103207;-76
2023/05/25 09:26:35;;;;;;;32.00;22.20;;;;;;;14.07;76.93;97776.11;108901;1249;101585;-76
2023/05/25 09:29:03;;;;;;;31.70;22.30;;;;;;;14.11;76.95;97777.08;108945;1250;99827;-74
2023/05/25 09:31:32;;;;;;;30.30;22.80;;;;;;;14.17;76.59;97780.27;108843;1250;95587;-75
2023/05/25 09:34:00;;;;;;;31.40;23.10;;;;;;;14.24;76.44;97778.27;108916;1250;96031;-74
2023/05/25 09:36:28;;;;;;;30.40;22.60;;;;;;;14.32;76.42;97779.31;108759;1253;102171;-75
2023/05/25 09:38:56;;;;;;;33.00;23.10;;;;;;;14.38;76.09;97778.48;108812;1250;101281;-73
2023/05/25 09:41:28;;;;;;;31.30;23.60;;;;;;;14.44;75.74;97772.14;108811;1250;97709;-74
2023/05/25 09:43:56;;;;;;;31.30;22.00;;;;;;;14.51;75.77;97768.66;108871;1250;95959;-74
2023/05/25 09:46:24;;;;;;;31.90;23.50;;;;;;;14.57;75.75;97771.11;108898;1250;96543;-74
2023/05/25 09:48:53;;;;;;;32.90;24.30;;;;;;;14.58;75.91;97769.85;108408;1250;102600;-76
2023/05/25 09:51:21;;;;;;;32.20;24.80;;;;;;;14.55;75.94;97772.52;108871;1250;101175;-73
2023/05/25 09:53:49;;;;;;;37.10;24.90;;;;;;;14.55;76.25;97776.61;108825;1250;99296;-74
2023/05/25 09:56:17;;;;;;;30.30;23.50;;;;;;;14.60;76.24;97775.66;108603;1251;95646;-74
2023/05/25 09:58:45;;;;;;;33.90;23.90;;;;;;;14.64;75.85;97772.39;108863;1250;95975;-74
2023/05/25 10:01:14;;;;;;;31.60;23.40;;;;;;;14.72;75.69;97773.59;108911;1250;103763;-74
2023/05/25 10:03:47;;;;;;;33.30;24.40;;;;;;;14.78;75.56;97773.34;108847;1250;101078;-74
2023/05/25 10:06:15;;;;;;;30.60;21.60;;;;;;;14.81;75.33;97769.60;108856;1251;99974;-75
2023/05/25 10:08:45;;;;;;;27.80;21.70;;;;;;;14.83;75.55;97768.81;108810;1250;95530;-74
2023/05/25 10:11:15;;;;;;;32.30;22.60;;;;;;;14.88;75.31;97767.24;108886;1251;96467;-75
2023/05/25 10:13:46;;;;;;;29.30;21.60;;;;;;;15.00;75.17;97766.11;108935;1250;103465;-74
2023/05/25 10:16:17;;;;;;;29.20;21.90;;;;;;;15.10;74.85;97766.20;108893;1250;100133;-74
2023/05/25 10:18:54;;;;;;;31.30;22.40;;;;;;;15.17;74.79;97769.04;108817;1250;99539;-75
2023/05/25 10:21:24;;;;;;;26.90;21.20;;;;;;;15.28;74.73;97767.25;108899;1250;95563;-74
2023/05/25 10:23:57;;;;;;;27.40;21.20;;;;;;;15.35;74.43;97764.54;108863;1250;96036;-74
2023/05/25 10:26:28;;;;;;;24.40;20.10;;;;;;;15.40;74.19;97763.75;108913;1250;103455;-74
2023/05/25 10:29:00;;;;;;;27.20;19.40;;;;;;;15.49;74.09;97762.52;108910;1250;101215;-74
2023/05/25 10:31:30;;;;;;;23.50;19.50;;;;;;;15.60;73.86;97765.25;108886;1250;99905;-74
2023/05/25 10:33:59;;;;;;;27.30;19.70;;;;;;;15.71;73.44;97765.08;108859;1250;95575;-73
2023/05/25 10:36:29;;;;;;;25.10;20.00;;;;;;;15.80;73.24;97763.25;108939;1250;96245;-74
2023/05/25 10:38:58;;;;;;;24.30;19.80;;;;;;;15.88;73.18;97763.27;108889;1250;104399;-74
2023/05/25 10:41:26;;;;;;;25.60;19.50;;;;;;;15.92;72.95;97759.32;108878;1250;101666;-75
2023/05/25 10:43:55;;;;;;;25.70;19.10;;;;;;;15.89;72.65;97756.27;108872;1250;99483;-74
2023/05/25 10:46:23;;;;;;;25.00;19.50;;;;;;;15.94;72.64;97755.40;108768;1251;95596;-75
2023/05/25 10:48:51;;;;;;;23.30;18.70;;;;;;;15.97;72.51;97752.05;108767;1250;96058;-74
2023/05/25 10:51:20;;;;;;;23.40;19.20;;;;;;;16.02;72.14;97749.66;108921;1250;103218;-75
2023/05/25 10:54:00;;;;;;;23.00;18.40;;;;;;;16.00;72.09;97749.77;108903;1250;101597;-75
2023/05/25 10:56:28;;;;;;;23.20;18.40;;;;;;;16.04;72.04;97751.23;108857;1250;99902;-73
2023/05/25 10:58:57;;;;;;;24.60;19.40;;;;;;;16.10;72.06;97754.70;108855;1250;95517;-74
2023/05/25 11:01:25;;;;;;;23.50;18.70;;;;;;;16.15;71.98;97757.27;108891;1250;96481;-73
2023/05/25 11:03:58;;;;;;;23.40;17.90;;;;;;;16.16;71.98;97758.37;108683;1250;103504;-76
2023/05/25 11:06:39;;;;;;;24.50;19.60;;;;;;;16.21;71.53;97757.39;108902;1250;101219;-76
2023/05/25 11:09:07;;;;;;;21.40;18.30;;;;;;;16.28;71.42;97751.21;108862;1250;99873;-74
2023/05/25 11:11:44;;;;;;;22.30;19.10;;;;;;;16.34;71.34;97743.77;108751;1250;95858;-74
2023/05/25 11:14:32;;;;;;;22.80;17.70;;;;;;;16.40;71.33;97741.67;108928;1250;96001;-77
2023/05/25 11:17:13;;;;;;;24.70;18.20;;;;;;;16.46;70.93;97742.89;108938;1250;102712;-75